sensor_id;sensor_type;location;lat;lon;timestamp;P1;durP1;ratioP1;P2;durP2;ratioP2
66619;SDS011;53484;51.356;6.732;2023-04-25T00:01:29;12.15;;;4.30;;
66619;SDS011;53484;51.356;6.732;2023-04-25T00:03:55;18.17;;;5.28;;
66619;SDS011;53484;51.356;6.732;2023-04-25T00:06:22;15.57;;;4.13;;
66619;SDS011;53484;51.356;6.732;2023-04-25T00:08:51;17.13;;;5.20;;
66619;SDS011;53484;51.356;6.732;2023-04-25T00:11:17;16.60;;;4.60;;
66619;SDS011;53484;51.356;6.732;2023-04-25T00:13:45;18.83;;;4.90;;
66619;SDS011;53484;51.356;6.732;2023-04-25T00:16:11;16.75;;;5.00;;
66619;SDS011;53484;51.356;6.732;2023-04-25T00:18:39;19.23;;;4.43;;
66619;SDS011;53484;51.356;6.732;2023-04-25T00:21:05;22.02;;;4.60;;
66619;SDS011;53484;51.356;6.732;2023-04-25T00:23:32;17.33;;;4.20;;
66619;SDS011;53484;51.356;6.732;2023-04-25T00:26:00;16.30;;;5.07;;
66619;SDS011;53484;51.356;6.732;2023-04-25T00:28:26;16.20;;;4.18;;
66619;SDS011;53484;51.356;6.732;2023-04-25T00:30:54;16.17;;;4.53;;
66619;SDS011;53484;51.356;6.732;2023-04-25T00:33:20;20.60;;;5.05;;
66619;SDS011;53484;51.356;6.732;2023-04-25T00:35:47;12.57;;;3.63;;
66619;SDS011;53484;51.356;6.732;2023-04-25T00:38:13;15.40;;;4.30;;
66619;SDS011;53484;51.356;6.732;2023-04-25T00:40:39;14.70;;;4.40;;
66619;SDS011;53484;51.356;6.732;2023-04-25T00:43:08;14.38;;;4.35;;
66619;SDS011;53484;51.356;6.732;2023-04-25T00:45:34;12.98;;;4.38;;
66619;SDS011;53484;51.356;6.732;2023-04-25T00:48:05;14.20;;;4.17;;
66619;SDS011;53484;51.356;6.732;2023-04-25T00:50:32;14.18;;;4.43;;
66619;SDS011;53484;51.356;6.732;2023-04-25T00:52:59;15.02;;;4.28;;
66619;SDS011;53484;51.356;6.732;2023-04-25T00:55:25;12.30;;;3.63;;
66619;SDS011;53484;51.356;6.732;2023-04-25T00:57:51;15.27;;;4.55;;
66619;SDS011;53484;51.356;6.732;2023-04-25T01:00:18;14.63;;;4.57;;
66619;SDS011;53484;51.356;6.732;2023-04-25T01:02:44;15.45;;;4.40;;
66619;SDS011;53484;51.356;6.732;2023-04-25T01:05:12;14.40;;;4.60;;
66619;SDS011;53484;51.356;6.732;2023-04-25T01:07:39;12.18;;;3.22;;
66619;SDS011;53484;51.356;6.732;2023-04-25T01:10:06;12.43;;;4.25;;
66619;SDS011;53484;51.356;6.732;2023-04-25T01:12:32;12.43;;;3.97;;
66619;SDS011;53484;51.356;6.732;2023-04-25T01:14:58;18.17;;;5.22;;
66619;SDS011;53484;51.356;6.732;2023-04-25T01:17:25;11.68;;;3.90;;
66619;SDS011;53484;51.356;6.732;2023-04-25T01:19:52;15.07;;;4.50;;
66619;SDS011;53484;51.356;6.732;2023-04-25T01:22:20;18.95;;;4.20;;
66619;SDS011;53484;51.356;6.732;2023-04-25T01:24:46;13.23;;;4.33;;
66619;SDS011;53484;51.356;6.732;2023-04-25T01:27:13;13.50;;;3.80;;
66619;SDS011;53484;51.356;6.732;2023-04-25T01:29:40;14.70;;;4.03;;
66619;SDS011;53484;51.356;6.732;2023-04-25T01:32:06;15.32;;;4.90;;
66619;SDS011;53484;51.356;6.732;2023-04-25T01:34:33;19.42;;;4.75;;
66619;SDS011;53484;51.356;6.732;2023-04-25T01:36:59;12.80;;;3.90;;
66619;SDS011;53484;51.356;6.732;2023-04-25T01:39:27;11.73;;;4.53;;
66619;SDS011;53484;51.356;6.732;2023-04-25T01:41:54;9.93;;;4.18;;
66619;SDS011;53484;51.356;6.732;2023-04-25T01:44:20;15.65;;;3.90;;
66619;SDS011;53484;51.356;6.732;2023-04-25T01:46:47;16.48;;;5.22;;
66619;SDS011;53484;51.356;6.732;2023-04-25T01:49:13;13.83;;;4.67;;
66619;SDS011;53484;51.356;6.732;2023-04-25T01:51:39;11.57;;;4.00;;
66619;SDS011;53484;51.356;6.732;2023-04-25T01:54:06;12.75;;;4.75;;
66619;SDS011;53484;51.356;6.732;2023-04-25T01:56:36;19.08;;;5.13;;
66619;SDS011;53484;51.356;6.732;2023-04-25T01:59:02;15.27;;;4.32;;
66619;SDS011;53484;51.356;6.732;2023-04-25T02:01:29;10.57;;;4.03;;
66619;SDS011;53484;51.356;6.732;2023-04-25T02:03:55;13.52;;;4.22;;
66619;SDS011;53484;51.356;6.732;2023-04-25T02:06:21;16.25;;;4.43;;
66619;SDS011;53484;51.356;6.732;2023-04-25T02:08:48;14.90;;;4.10;;
66619;SDS011;53484;51.356;6.732;2023-04-25T02:11:14;10.13;;;4.03;;
66619;SDS011;53484;51.356;6.732;2023-04-25T02:13:42;13.77;;;4.07;;
66619;SDS011;53484;51.356;6.732;2023-04-25T02:16:08;12.98;;;3.97;;
66619;SDS011;53484;51.356;6.732;2023-04-25T02:18:34;14.70;;;4.63;;
66619;SDS011;53484;51.356;6.732;2023-04-25T02:21:02;12.68;;;4.13;;
66619;SDS011;53484;51.356;6.732;2023-04-25T02:23:28;15.40;;;3.97;;
66619;SDS011;53484;51.356;6.732;2023-04-25T02:25:55;9.37;;;3.67;;
66619;SDS011;53484;51.356;6.732;2023-04-25T02:28:23;11.68;;;3.78;;
66619;SDS011;53484;51.356;6.732;2023-04-25T02:30:50;14.00;;;4.22;;
66619;SDS011;53484;51.356;6.732;2023-04-25T02:33:17;14.63;;;3.90;;
66619;SDS011;53484;51.356;6.732;2023-04-25T02:35:43;13.68;;;3.88;;
66619;SDS011;53484;51.356;6.732;2023-04-25T02:38:09;12.73;;;3.83;;
66619;SDS011;53484;51.356;6.732;2023-04-25T02:40:35;11.40;;;4.15;;
66619;SDS011;53484;51.356;6.732;2023-04-25T02:43:02;15.45;;;4.30;;
66619;SDS011;53484;51.356;6.732;2023-04-25T02:45:28;11.15;;;4.10;;
66619;SDS011;53484;51.356;6.732;2023-04-25T02:47:55;10.82;;;3.90;;
66619;SDS011;53484;51.356;6.732;2023-04-25T02:50:22;15.03;;;4.40;;
66619;SDS011;53484;51.356;6.732;2023-04-25T02:52:48;14.45;;;4.85;;
66619;SDS011;53484;51.356;6.732;2023-04-25T02:55:14;14.90;;;4.22;;
66619;SDS011;53484;51.356;6.732;2023-04-25T02:57:41;16.88;;;4.07;;
66619;SDS011;53484;51.356;6.732;2023-04-25T03:00:07;12.82;;;4.15;;
66619;SDS011;53484;51.356;6.732;2023-04-25T03:02:36;19.60;;;5.00;;
66619;SDS011;53484;51.356;6.732;2023-04-25T03:05:04;12.45;;;4.60;;
66619;SDS011;53484;51.356;6.732;2023-04-25T03:07:30;18.52;;;4.90;;
66619;SDS011;53484;51.356;6.732;2023-04-25T03:09:57;20.90;;;4.93;;
66619;SDS011;53484;51.356;6.732;2023-04-25T03:12:23;13.13;;;4.90;;
66619;SDS011;53484;51.356;6.732;2023-04-25T03:14:49;13.70;;;5.97;;
66619;SDS011;53484;51.356;6.732;2023-04-25T03:17:16;13.50;;;5.40;;
66619;SDS011;53484;51.356;6.732;2023-04-25T03:19:43;17.48;;;5.35;;
66619;SDS011;53484;51.356;6.732;2023-04-25T03:22:10;23.10;;;7.22;;
66619;SDS011;53484;51.356;6.732;2023-04-25T03:24:37;21.83;;;7.70;;
66619;SDS011;53484;51.356;6.732;2023-04-25T03:27:03;11.73;;;4.27;;
66619;SDS011;53484;51.356;6.732;2023-04-25T03:29:29;21.63;;;6.45;;
66619;SDS011;53484;51.356;6.732;2023-04-25T03:31:55;25.10;;;6.88;;
66619;SDS011;53484;51.356;6.732;2023-04-25T03:34:22;22.23;;;6.07;;
66619;SDS011;53484;51.356;6.732;2023-04-25T03:36:48;25.40;;;7.00;;
66619;SDS011;53484;51.356;6.732;2023-04-25T03:39:16;22.43;;;6.50;;
66619;SDS011;53484;51.356;6.732;2023-04-25T03:41:42;16.80;;;5.75;;
66619;SDS011;53484;51.356;6.732;2023-04-25T03:44:09;21.17;;;5.55;;
66619;SDS011;53484;51.356;6.732;2023-04-25T03:46:35;21.10;;;5.35;;
66619;SDS011;53484;51.356;6.732;2023-04-25T03:49:01;15.93;;;5.15;;
66619;SDS011;53484;51.356;6.732;2023-04-25T03:51:27;23.97;;;5.40;;
66619;SDS011;53484;51.356;6.732;2023-04-25T03:53:54;15.13;;;5.28;;
66619;SDS011;53484;51.356;6.732;2023-04-25T03:56:22;20.10;;;5.18;;
66619;SDS011;53484;51.356;6.732;2023-04-25T03:58:48;16.55;;;4.60;;
66619;SDS011;53484;51.356;6.732;2023-04-25T04:01:14;23.23;;;5.90;;
66619;SDS011;53484;51.356;6.732;2023-04-25T04:03:40;23.50;;;5.87;;
66619;SDS011;53484;51.356;6.732;2023-04-25T04:06:07;9.63;;;3.22;;
66619;SDS011;53484;51.356;6.732;2023-04-25T04:08:34;19.15;;;4.93;;
66619;SDS011;53484;51.356;6.732;2023-04-25T04:11:00;17.20;;;5.93;;
66619;SDS011;53484;51.356;6.732;2023-04-25T04:13:28;18.58;;;6.93;;
66619;SDS011;53484;51.356;6.732;2023-04-25T04:15:54;27.50;;;6.37;;
66619;SDS011;53484;51.356;6.732;2023-04-25T04:18:22;31.95;;;6.75;;
66619;SDS011;53484;51.356;6.732;2023-04-25T04:20:48;17.60;;;5.68;;
66619;SDS011;53484;51.356;6.732;2023-04-25T04:23:14;21.90;;;6.68;;
66619;SDS011;53484;51.356;6.732;2023-04-25T04:25:41;20.77;;;6.40;;
66619;SDS011;53484;51.356;6.732;2023-04-25T04:28:08;21.77;;;6.77;;
66619;SDS011;53484;51.356;6.732;2023-04-25T04:30:37;26.70;;;7.38;;
66619;SDS011;53484;51.356;6.732;2023-04-25T04:33:04;25.23;;;6.07;;
66619;SDS011;53484;51.356;6.732;2023-04-25T04:35:30;23.60;;;7.00;;
66619;SDS011;53484;51.356;6.732;2023-04-25T04:37:57;35.20;;;10.93;;
66619;SDS011;53484;51.356;6.732;2023-04-25T04:40:23;30.37;;;9.27;;
66619;SDS011;53484;51.356;6.732;2023-04-25T04:42:50;26.17;;;8.38;;
66619;SDS011;53484;51.356;6.732;2023-04-25T04:45:18;28.88;;;9.15;;
66619;SDS011;53484;51.356;6.732;2023-04-25T04:47:46;32.30;;;8.95;;
66619;SDS011;53484;51.356;6.732;2023-04-25T04:50:13;24.15;;;7.15;;
66619;SDS011;53484;51.356;6.732;2023-04-25T04:52:40;26.07;;;6.40;;
66619;SDS011;53484;51.356;6.732;2023-04-25T04:55:06;29.90;;;8.23;;
66619;SDS011;53484;51.356;6.732;2023-04-25T04:57:33;23.55;;;7.80;;
66619;SDS011;53484;51.356;6.732;2023-04-25T04:59:59;23.73;;;6.40;;
66619;SDS011;53484;51.356;6.732;2023-04-25T05:02:32;26.90;;;6.55;;
66619;SDS011;53484;51.356;6.732;2023-04-25T05:05:00;26.93;;;6.13;;
66619;SDS011;53484;51.356;6.732;2023-04-25T05:07:28;23.27;;;6.25;;
66619;SDS011;53484;51.356;6.732;2023-04-25T05:09:54;23.85;;;6.30;;
66619;SDS011;53484;51.356;6.732;2023-04-25T05:12:21;31.05;;;6.10;;
66619;SDS011;53484;51.356;6.732;2023-04-25T05:14:47;21.98;;;7.22;;
66619;SDS011;53484;51.356;6.732;2023-04-25T05:17:13;29.10;;;7.43;;
66619;SDS011;53484;51.356;6.732;2023-04-25T05:19:42;25.17;;;7.28;;
66619;SDS011;53484;51.356;6.732;2023-04-25T05:22:09;22.02;;;6.03;;
66619;SDS011;53484;51.356;6.732;2023-04-25T05:24:36;23.55;;;6.78;;
66619;SDS011;53484;51.356;6.732;2023-04-25T05:27:02;23.38;;;5.68;;
66619;SDS011;53484;51.356;6.732;2023-04-25T05:29:28;23.87;;;5.93;;
66619;SDS011;53484;51.356;6.732;2023-04-25T05:31:56;23.48;;;4.88;;
66619;SDS011;53484;51.356;6.732;2023-04-25T05:34:22;22.95;;;5.13;;
66619;SDS011;53484;51.356;6.732;2023-04-25T05:36:49;25.30;;;5.30;;
66619;SDS011;53484;51.356;6.732;2023-04-25T05:39:17;29.75;;;6.65;;
66619;SDS011;53484;51.356;6.732;2023-04-25T05:41:43;22.17;;;6.43;;
66619;SDS011;53484;51.356;6.732;2023-04-25T05:44:09;26.45;;;6.80;;
66619;SDS011;53484;51.356;6.732;2023-04-25T05:46:36;24.63;;;7.03;;
66619;SDS011;53484;51.356;6.732;2023-04-25T05:49:02;32.78;;;6.90;;
66619;SDS011;53484;51.356;6.732;2023-04-25T05:51:28;30.10;;;7.88;;
66619;SDS011;53484;51.356;6.732;2023-04-25T05:53:56;29.63;;;7.33;;
66619;SDS011;53484;51.356;6.732;2023-04-25T05:56:23;21.90;;;5.85;;
66619;SDS011;53484;51.356;6.732;2023-04-25T05:58:50;24.05;;;7.07;;
66619;SDS011;53484;51.356;6.732;2023-04-25T06:01:16;21.27;;;5.68;;
66619;SDS011;53484;51.356;6.732;2023-04-25T06:03:42;22.75;;;5.18;;
66619;SDS011;53484;51.356;6.732;2023-04-25T06:06:08;21.80;;;5.13;;
66619;SDS011;53484;51.356;6.732;2023-04-25T06:08:35;20.38;;;5.35;;
66619;SDS011;53484;51.356;6.732;2023-04-25T06:11:01;18.13;;;4.95;;
66619;SDS011;53484;51.356;6.732;2023-04-25T06:13:29;18.75;;;4.25;;
66619;SDS011;53484;51.356;6.732;2023-04-25T06:15:55;13.07;;;3.42;;
66619;SDS011;53484;51.356;6.732;2023-04-25T06:18:21;13.77;;;4.17;;
66619;SDS011;53484;51.356;6.732;2023-04-25T06:20:47;17.45;;;3.78;;
66619;SDS011;53484;51.356;6.732;2023-04-25T06:23:14;13.48;;;3.30;;
66619;SDS011;53484;51.356;6.732;2023-04-25T06:25:40;11.88;;;3.42;;
66619;SDS011;53484;51.356;6.732;2023-04-25T06:28:06;15.10;;;3.50;;
66619;SDS011;53484;51.356;6.732;2023-04-25T06:30:34;15.03;;;3.63;;
66619;SDS011;53484;51.356;6.732;2023-04-25T06:33:01;20.27;;;4.50;;
66619;SDS011;53484;51.356;6.732;2023-04-25T06:35:27;14.70;;;3.90;;
66619;SDS011;53484;51.356;6.732;2023-04-25T06:37:53;16.95;;;4.03;;
66619;SDS011;53484;51.356;6.732;2023-04-25T06:40:19;10.70;;;4.55;;
66619;SDS011;53484;51.356;6.732;2023-04-25T06:42:46;12.50;;;4.20;;
66619;SDS011;53484;51.356;6.732;2023-04-25T06:45:12;16.30;;;4.75;;
66619;SDS011;53484;51.356;6.732;2023-04-25T06:47:40;15.85;;;4.35;;
66619;SDS011;53484;51.356;6.732;2023-04-25T06:50:06;18.25;;;5.15;;
66619;SDS011;53484;51.356;6.732;2023-04-25T06:52:33;17.15;;;4.95;;
66619;SDS011;53484;51.356;6.732;2023-04-25T06:54:59;15.67;;;4.30;;
66619;SDS011;53484;51.356;6.732;2023-04-25T06:57:25;33.00;;;5.82;;
66619;SDS011;53484;51.356;6.732;2023-04-25T06:59:53;16.20;;;4.13;;
66619;SDS011;53484;51.356;6.732;2023-04-25T07:02:19;14.07;;;4.07;;
66619;SDS011;53484;51.356;6.732;2023-04-25T07:04:48;21.70;;;3.80;;
66619;SDS011;53484;51.356;6.732;2023-04-25T07:07:14;18.43;;;3.50;;
66619;SDS011;53484;51.356;6.732;2023-04-25T07:09:42;22.77;;;4.05;;
66619;SDS011;53484;51.356;6.732;2023-04-25T07:12:08;14.02;;;3.28;;
66619;SDS011;53484;51.356;6.732;2023-04-25T07:14:34;17.10;;;4.03;;
66619;SDS011;53484;51.356;6.732;2023-04-25T07:17:01;13.13;;;3.53;;
66619;SDS011;53484;51.356;6.732;2023-04-25T07:19:27;18.43;;;5.50;;
66619;SDS011;53484;51.356;6.732;2023-04-25T07:21:56;16.70;;;3.85;;
66619;SDS011;53484;51.356;6.732;2023-04-25T07:24:22;19.38;;;3.88;;
66619;SDS011;53484;51.356;6.732;2023-04-25T07:26:48;14.02;;;3.47;;
66619;SDS011;53484;51.356;6.732;2023-04-25T07:29:15;15.70;;;3.45;;
66619;SDS011;53484;51.356;6.732;2023-04-25T07:31:41;25.30;;;4.40;;
66619;SDS011;53484;51.356;6.732;2023-04-25T07:34:09;20.50;;;5.47;;
66619;SDS011;53484;51.356;6.732;2023-04-25T07:36:35;18.73;;;6.72;;
66619;SDS011;53484;51.356;6.732;2023-04-25T07:39:02;23.33;;;8.23;;
66619;SDS011;53484;51.356;6.732;2023-04-25T07:41:29;17.70;;;4.20;;
66619;SDS011;53484;51.356;6.732;2023-04-25T07:43:55;14.73;;;3.73;;
66619;SDS011;53484;51.356;6.732;2023-04-25T07:46:22;21.33;;;3.60;;
66619;SDS011;53484;51.356;6.732;2023-04-25T07:48:48;16.40;;;4.00;;
66619;SDS011;53484;51.356;6.732;2023-04-25T07:51:14;17.83;;;3.58;;
66619;SDS011;53484;51.356;6.732;2023-04-25T07:53:41;16.52;;;3.47;;
66619;SDS011;53484;51.356;6.732;2023-04-25T07:56:08;18.60;;;3.87;;
66619;SDS011;53484;51.356;6.732;2023-04-25T07:58:35;15.45;;;3.42;;
66619;SDS011;53484;51.356;6.732;2023-04-25T08:01:02;17.85;;;3.88;;
66619;SDS011;53484;51.356;6.732;2023-04-25T08:03:29;15.65;;;4.15;;
66619;SDS011;53484;51.356;6.732;2023-04-25T08:05:55;19.20;;;4.65;;
66619;SDS011;53484;51.356;6.732;2023-04-25T08:08:21;25.07;;;8.17;;
66619;SDS011;53484;51.356;6.732;2023-04-25T08:10:48;25.02;;;7.55;;
66619;SDS011;53484;51.356;6.732;2023-04-25T08:13:15;13.85;;;5.70;;
66619;SDS011;53484;51.356;6.732;2023-04-25T08:15:42;14.35;;;4.75;;
66619;SDS011;53484;51.356;6.732;2023-04-25T08:18:08;13.02;;;2.72;;
66619;SDS011;53484;51.356;6.732;2023-04-25T08:20:34;13.50;;;3.80;;
66619;SDS011;53484;51.356;6.732;2023-04-25T08:23:01;13.10;;;4.68;;
66619;SDS011;53484;51.356;6.732;2023-04-25T08:25:27;10.38;;;3.03;;
66619;SDS011;53484;51.356;6.732;2023-04-25T08:27:53;17.65;;;3.33;;
66619;SDS011;53484;51.356;6.732;2023-04-25T08:30:30;10.95;;;2.83;;
66619;SDS011;53484;51.356;6.732;2023-04-25T08:32:56;18.33;;;2.90;;
66619;SDS011;53484;51.356;6.732;2023-04-25T08:35:23;15.15;;;3.75;;
66619;SDS011;53484;51.356;6.732;2023-04-25T08:37:49;18.58;;;5.35;;
66619;SDS011;53484;51.356;6.732;2023-04-25T08:40:16;18.98;;;4.53;;
66619;SDS011;53484;51.356;6.732;2023-04-25T08:42:42;13.80;;;3.60;;
66619;SDS011;53484;51.356;6.732;2023-04-25T08:45:09;17.40;;;3.20;;
66619;SDS011;53484;51.356;6.732;2023-04-25T08:47:37;20.10;;;3.15;;
66619;SDS011;53484;51.356;6.732;2023-04-25T08:50:05;10.88;;;2.30;;
66619;SDS011;53484;51.356;6.732;2023-04-25T08:52:34;10.90;;;2.20;;
66619;SDS011;53484;51.356;6.732;2023-04-25T08:55:01;11.48;;;2.25;;
66619;SDS011;53484;51.356;6.732;2023-04-25T08:57:34;9.50;;;2.07;;
66619;SDS011;53484;51.356;6.732;2023-04-25T09:00:01;9.23;;;2.03;;
66619;SDS011;53484;51.356;6.732;2023-04-25T09:02:29;7.53;;;2.00;;
66619;SDS011;53484;51.356;6.732;2023-04-25T09:04:57;13.48;;;2.00;;
66619;SDS011;53484;51.356;6.732;2023-04-25T09:07:23;9.10;;;1.70;;
66619;SDS011;53484;51.356;6.732;2023-04-25T09:09:51;9.17;;;1.80;;
66619;SDS011;53484;51.356;6.732;2023-04-25T09:12:18;8.73;;;2.08;;
66619;SDS011;53484;51.356;6.732;2023-04-25T09:14:46;8.32;;;2.10;;
66619;SDS011;53484;51.356;6.732;2023-04-25T09:17:26;9.32;;;1.95;;
66619;SDS011;53484;51.356;6.732;2023-04-25T09:19:57;8.38;;;2.45;;
66619;SDS011;53484;51.356;6.732;2023-04-25T09:22:31;10.43;;;2.47;;
66619;SDS011;53484;51.356;6.732;2023-04-25T09:24:57;8.68;;;2.35;;
66619;SDS011;53484;51.356;6.732;2023-04-25T09:27:24;8.63;;;2.00;;
66619;SDS011;53484;51.356;6.732;2023-04-25T09:29:56;12.23;;;2.10;;
66619;SDS011;53484;51.356;6.732;2023-04-25T09:32:23;7.45;;;2.00;;
66619;SDS011;53484;51.356;6.732;2023-04-25T09:34:52;8.73;;;1.90;;
66619;SDS011;53484;51.356;6.732;2023-04-25T09:37:22;10.45;;;1.85;;
66619;SDS011;53484;51.356;6.732;2023-04-25T09:39:49;13.35;;;2.20;;
66619;SDS011;53484;51.356;6.732;2023-04-25T09:42:15;10.40;;;1.65;;
66619;SDS011;53484;51.356;6.732;2023-04-25T09:44:42;9.20;;;1.67;;
66619;SDS011;53484;51.356;6.732;2023-04-25T09:47:09;7.47;;;1.60;;
66619;SDS011;53484;51.356;6.732;2023-04-25T09:49:38;7.47;;;1.98;;
66619;SDS011;53484;51.356;6.732;2023-04-25T09:52:04;8.68;;;2.22;;
66619;SDS011;53484;51.356;6.732;2023-04-25T09:54:40;6.82;;;1.35;;
66619;SDS011;53484;51.356;6.732;2023-04-25T09:57:09;7.68;;;1.60;;
66619;SDS011;53484;51.356;6.732;2023-04-25T09:59:36;8.73;;;1.60;;
66619;SDS011;53484;51.356;6.732;2023-04-25T10:02:04;13.90;;;2.65;;
66619;SDS011;53484;51.356;6.732;2023-04-25T10:04:31;11.90;;;3.40;;
66619;SDS011;53484;51.356;6.732;2023-04-25T10:07:00;14.77;;;2.72;;
66619;SDS011;53484;51.356;6.732;2023-04-25T10:09:27;6.15;;;1.50;;
66619;SDS011;53484;51.356;6.732;2023-04-25T10:11:58;10.90;;;3.17;;
66619;SDS011;53484;51.356;6.732;2023-04-25T10:14:25;15.05;;;3.63;;
66619;SDS011;53484;51.356;6.732;2023-04-25T10:16:51;11.43;;;2.63;;
66619;SDS011;53484;51.356;6.732;2023-04-25T10:19:18;18.65;;;4.75;;
66619;SDS011;53484;51.356;6.732;2023-04-25T10:21:46;15.93;;;3.22;;
66619;SDS011;53484;51.356;6.732;2023-04-25T10:24:13;10.23;;;2.37;;
66619;SDS011;53484;51.356;6.732;2023-04-25T10:26:40;9.73;;;2.20;;
66619;SDS011;53484;51.356;6.732;2023-04-25T10:29:08;6.47;;;1.48;;
66619;SDS011;53484;51.356;6.732;2023-04-25T10:31:38;7.30;;;1.67;;
66619;SDS011;53484;51.356;6.732;2023-04-25T10:34:10;9.52;;;1.95;;
66619;SDS011;53484;51.356;6.732;2023-04-25T10:36:36;7.30;;;1.70;;
66619;SDS011;53484;51.356;6.732;2023-04-25T10:39:09;6.10;;;1.58;;
66619;SDS011;53484;51.356;6.732;2023-04-25T10:41:46;5.88;;;1.40;;
66619;SDS011;53484;51.356;6.732;2023-04-25T10:44:15;11.43;;;1.50;;
66619;SDS011;53484;51.356;6.732;2023-04-25T10:46:44;7.32;;;1.70;;
66619;SDS011;53484;51.356;6.732;2023-04-25T10:49:27;11.27;;;2.20;;
66619;SDS011;53484;51.356;6.732;2023-04-25T10:54:39;7.72;;;2.28;;
66619;SDS011;53484;51.356;6.732;2023-04-25T10:57:05;9.00;;;2.03;;
66619;SDS011;53484;51.356;6.732;2023-04-25T10:59:33;6.47;;;1.45;;
66619;SDS011;53484;51.356;6.732;2023-04-25T11:02:00;8.50;;;1.90;;
66619;SDS011;53484;51.356;6.732;2023-04-25T11:04:37;10.32;;;1.73;;
66619;SDS011;53484;51.356;6.732;2023-04-25T11:07:06;5.60;;;1.65;;
66619;SDS011;53484;51.356;6.732;2023-04-25T11:09:36;8.75;;;1.50;;
66619;SDS011;53484;51.356;6.732;2023-04-25T11:12:07;10.43;;;1.60;;
66619;SDS011;53484;51.356;6.732;2023-04-25T11:14:35;7.40;;;1.97;;
66619;SDS011;53484;51.356;6.732;2023-04-25T11:17:03;6.55;;;1.40;;
66619;SDS011;53484;51.356;6.732;2023-04-25T11:19:30;7.32;;;1.58;;
66619;SDS011;53484;51.356;6.732;2023-04-25T11:21:56;17.77;;;4.10;;
66619;SDS011;53484;51.356;6.732;2023-04-25T11:24:25;7.55;;;2.35;;
66619;SDS011;53484;51.356;6.732;2023-04-25T11:26:51;16.07;;;4.33;;
66619;SDS011;53484;51.356;6.732;2023-04-25T11:29:18;14.88;;;3.55;;
66619;SDS011;53484;51.356;6.732;2023-04-25T11:31:46;16.27;;;3.20;;
66619;SDS011;53484;51.356;6.732;2023-04-25T11:34:16;8.70;;;2.28;;
66619;SDS011;53484;51.356;6.732;2023-04-25T11:36:43;12.10;;;2.42;;
66619;SDS011;53484;51.356;6.732;2023-04-25T11:39:11;11.30;;;2.70;;
66619;SDS011;53484;51.356;6.732;2023-04-25T11:41:38;7.78;;;2.58;;
66619;SDS011;53484;51.356;6.732;2023-04-25T11:44:05;11.93;;;2.40;;
66619;SDS011;53484;51.356;6.732;2023-04-25T11:46:33;14.35;;;3.30;;
66619;SDS011;53484;51.356;6.732;2023-04-25T11:49:01;10.63;;;3.03;;
66619;SDS011;53484;51.356;6.732;2023-04-25T11:51:29;13.20;;;2.77;;
66619;SDS011;53484;51.356;6.732;2023-04-25T11:53:57;10.60;;;2.38;;
66619;SDS011;53484;51.356;6.732;2023-04-25T11:56:23;11.52;;;2.58;;
66619;SDS011;53484;51.356;6.732;2023-04-25T11:58:57;6.35;;;1.92;;
66619;SDS011;53484;51.356;6.732;2023-04-25T12:01:27;10.45;;;2.40;;
66619;SDS011;53484;51.356;6.732;2023-04-25T12:03:53;8.37;;;1.90;;
66619;SDS011;53484;51.356;6.732;2023-04-25T12:06:23;6.80;;;1.98;;
66619;SDS011;53484;51.356;6.732;2023-04-25T12:09:01;5.78;;;1.80;;
66619;SDS011;53484;51.356;6.732;2023-04-25T12:11:27;9.43;;;1.92;;
66619;SDS011;53484;51.356;6.732;2023-04-25T12:13:55;9.68;;;2.08;;
66619;SDS011;53484;51.356;6.732;2023-04-25T12:16:21;5.67;;;2.47;;
66619;SDS011;53484;51.356;6.732;2023-04-25T12:18:48;9.57;;;2.17;;
66619;SDS011;53484;51.356;6.732;2023-04-25T12:21:17;10.52;;;2.60;;
66619;SDS011;53484;51.356;6.732;2023-04-25T12:23:45;8.18;;;1.83;;
66619;SDS011;53484;51.356;6.732;2023-04-25T12:26:12;8.48;;;2.30;;
66619;SDS011;53484;51.356;6.732;2023-04-25T12:28:38;12.37;;;3.73;;
66619;SDS011;53484;51.356;6.732;2023-04-25T12:31:05;11.80;;;3.10;;
66619;SDS011;53484;51.356;6.732;2023-04-25T12:33:32;15.98;;;3.50;;
66619;SDS011;53484;51.356;6.732;2023-04-25T12:35:58;9.85;;;2.55;;
66619;SDS011;53484;51.356;6.732;2023-04-25T12:38:25;7.70;;;2.55;;
66619;SDS011;53484;51.356;6.732;2023-04-25T12:40:53;13.33;;;2.90;;
66619;SDS011;53484;51.356;6.732;2023-04-25T12:43:20;8.38;;;3.05;;
66619;SDS011;53484;51.356;6.732;2023-04-25T12:45:47;7.75;;;3.13;;
66619;SDS011;53484;51.356;6.732;2023-04-25T12:48:13;12.77;;;2.65;;
66619;SDS011;53484;51.356;6.732;2023-04-25T12:50:40;8.65;;;2.83;;
66619;SDS011;53484;51.356;6.732;2023-04-25T12:53:07;7.87;;;2.03;;
66619;SDS011;53484;51.356;6.732;2023-04-25T12:55:33;6.88;;;1.90;;
66619;SDS011;53484;51.356;6.732;2023-04-25T12:58:01;7.40;;;2.17;;
66619;SDS011;53484;51.356;6.732;2023-04-25T13:00:28;7.18;;;2.10;;
66619;SDS011;53484;51.356;6.732;2023-04-25T13:02:54;11.70;;;2.40;;
66619;SDS011;53484;51.356;6.732;2023-04-25T13:05:20;8.17;;;2.10;;
66619;SDS011;53484;51.356;6.732;2023-04-25T13:07:47;10.65;;;1.58;;
66619;SDS011;53484;51.356;6.732;2023-04-25T13:10:13;9.95;;;2.13;;
66619;SDS011;53484;51.356;6.732;2023-04-25T13:12:40;8.52;;;2.05;;
66619;SDS011;53484;51.356;6.732;2023-04-25T13:15:09;6.60;;;2.47;;
66619;SDS011;53484;51.356;6.732;2023-04-25T13:17:36;5.53;;;2.33;;
66619;SDS011;53484;51.356;6.732;2023-04-25T13:20:02;8.45;;;1.85;;
66619;SDS011;53484;51.356;6.732;2023-04-25T13:22:33;8.70;;;1.95;;
66619;SDS011;53484;51.356;6.732;2023-04-25T13:25:01;5.88;;;1.83;;
66619;SDS011;53484;51.356;6.732;2023-04-25T13:27:28;6.72;;;1.67;;
66619;SDS011;53484;51.356;6.732;2023-04-25T13:29:55;8.90;;;1.63;;
66619;SDS011;53484;51.356;6.732;2023-04-25T13:32:22;8.52;;;1.63;;
66619;SDS011;53484;51.356;6.732;2023-04-25T13:34:49;7.90;;;1.80;;
66619;SDS011;53484;51.356;6.732;2023-04-25T13:37:15;7.65;;;1.40;;
66619;SDS011;53484;51.356;6.732;2023-04-25T13:39:41;6.20;;;1.30;;
66619;SDS011;53484;51.356;6.732;2023-04-25T13:42:08;9.40;;;1.70;;
66619;SDS011;53484;51.356;6.732;2023-04-25T13:44:35;7.05;;;1.75;;
66619;SDS011;53484;51.356;6.732;2023-04-25T13:47:01;8.07;;;1.60;;
66619;SDS011;53484;51.356;6.732;2023-04-25T13:49:29;9.35;;;1.50;;
66619;SDS011;53484;51.356;6.732;2023-04-25T13:51:56;7.30;;;2.08;;
66619;SDS011;53484;51.356;6.732;2023-04-25T13:54:22;8.73;;;2.10;;
66619;SDS011;53484;51.356;6.732;2023-04-25T13:56:49;14.15;;;3.30;;
66619;SDS011;53484;51.356;6.732;2023-04-25T13:59:16;24.73;;;9.10;;
66619;SDS011;53484;51.356;6.732;2023-04-25T14:01:43;12.88;;;3.80;;
66619;SDS011;53484;51.356;6.732;2023-04-25T14:04:09;7.68;;;1.77;;
66619;SDS011;53484;51.356;6.732;2023-04-25T14:06:37;5.63;;;1.50;;
66619;SDS011;53484;51.356;6.732;2023-04-25T14:09:04;6.20;;;1.95;;
66619;SDS011;53484;51.356;6.732;2023-04-25T14:11:31;9.32;;;1.83;;
66619;SDS011;53484;51.356;6.732;2023-04-25T14:13:57;6.63;;;1.90;;
66619;SDS011;53484;51.356;6.732;2023-04-25T14:16:24;7.35;;;1.90;;
66619;SDS011;53484;51.356;6.732;2023-04-25T14:18:50;12.07;;;3.77;;
66619;SDS011;53484;51.356;6.732;2023-04-25T14:21:17;12.07;;;2.75;;
66619;SDS011;53484;51.356;6.732;2023-04-25T14:23:45;7.18;;;1.63;;
66619;SDS011;53484;51.356;6.732;2023-04-25T14:26:11;8.27;;;2.50;;
66619;SDS011;53484;51.356;6.732;2023-04-25T14:28:38;5.30;;;1.92;;
66619;SDS011;53484;51.356;6.732;2023-04-25T14:31:04;7.13;;;1.73;;
66619;SDS011;53484;51.356;6.732;2023-04-25T14:33:30;7.28;;;2.15;;
66619;SDS011;53484;51.356;6.732;2023-04-25T14:35:56;7.20;;;1.80;;
66619;SDS011;53484;51.356;6.732;2023-04-25T14:38:23;8.48;;;1.95;;
66619;SDS011;53484;51.356;6.732;2023-04-25T14:40:52;7.43;;;1.83;;